createdAt,value
2023-04-25T03:58:00.707Z,1004.57
2023-04-25T03:59:00.789Z,1004.52
2023-04-25T04:00:00.911Z,1004.53
2023-04-25T04:01:01.043Z,1004.54
2023-04-25T04:02:01.170Z,1004.57
2023-04-25T04:03:01.384Z,1004.56
2023-04-25T04:04:01.636Z,1004.59
2023-04-25T04:05:01.886Z,1004.58
2023-04-25T04:06:01.699Z,1004.61
2023-04-25T04:07:01.805Z,1004.66
2023-04-25T04:08:01.963Z,1004.68
2023-04-25T04:09:02.090Z,1004.65
2023-04-25T04:10:02.220Z,1004.69
2023-04-25T04:11:02.313Z,1004.69
2023-04-25T04:12:02.484Z,1004.72
2023-04-25T04:13:02.665Z,1004.69
2023-04-25T04:14:02.751Z,1004.71
2023-04-25T04:15:02.909Z,1004.69
2023-04-25T04:16:03.068Z,1004.74
2023-04-25T04:17:03.138Z,1004.77
2023-04-25T04:18:03.338Z,1004.74
2023-04-25T04:19:03.373Z,1004.73
2023-04-25T04:20:03.596Z,1004.80
2023-04-25T04:21:03.639Z,1004.70
2023-04-25T04:22:03.770Z,1004.78
2023-04-25T04:23:03.924Z,1004.73
2023-04-25T04:24:04.114Z,1004.78
2023-04-25T04:25:04.199Z,1004.83
2023-04-25T04:26:04.343Z,1004.83
2023-04-25T04:27:04.498Z,1004.79
2023-04-25T04:28:04.613Z,1004.88
2023-04-25T04:29:04.861Z,1004.86
2023-04-25T04:30:04.984Z,1004.82
2023-04-25T04:31:05.157Z,1004.79
2023-04-25T04:32:05.167Z,1004.88
2023-04-25T04:33:05.318Z,1004.91
2023-04-25T04:34:05.415Z,1004.89
2023-04-25T04:35:05.570Z,1004.93
2023-04-25T04:36:05.656Z,1004.92
2023-04-25T04:37:05.765Z,1004.91
2023-04-25T04:38:05.877Z,1004.94
2023-04-25T04:39:05.981Z,1004.95
2023-04-25T04:40:06.243Z,1004.97
2023-04-25T04:41:06.241Z,1004.99
2023-04-25T04:42:06.355Z,1004.94
2023-04-25T04:43:06.486Z,1004.92
2023-04-25T04:44:08.321Z,1004.97
2023-04-25T04:45:06.677Z,1005.00
2023-04-25T04:46:06.885Z,1004.95
2023-04-25T04:47:07.044Z,1005.02
2023-04-25T04:48:07.141Z,1005.01
2023-04-25T04:49:07.277Z,1005.06
2023-04-25T04:50:07.390Z,1005.03
2023-04-25T04:51:07.539Z,1005.07
2023-04-25T04:52:07.676Z,1005.05
2023-04-25T04:53:07.819Z,1005.04
2023-04-25T04:54:07.998Z,1005.10
2023-04-25T04:55:08.145Z,1005.10
2023-04-25T04:56:08.309Z,1005.14
2023-04-25T04:57:08.436Z,1005.11
2023-04-25T04:58:08.575Z,1005.13
2023-04-25T04:59:08.716Z,1005.17
2023-04-25T05:00:08.853Z,1005.18
2023-04-25T05:01:09.103Z,1005.23
2023-04-25T05:02:09.107Z,1005.26
2023-04-25T05:03:09.407Z,1005.24
2023-04-25T05:04:09.531Z,1005.26
2023-04-25T05:05:09.505Z,1005.27
2023-04-25T05:06:09.682Z,1005.26
2023-04-25T05:07:09.794Z,1005.28
2023-04-25T05:08:09.933Z,1005.30
2023-04-25T05:09:10.073Z,1005.27
2023-04-25T05:10:10.218Z,1005.33
2023-04-25T05:11:10.358Z,1005.37
2023-04-25T05:12:10.480Z,1005.39
2023-04-25T05:13:10.611Z,1005.40
2023-04-25T05:14:10.769Z,1005.44
2023-04-25T05:15:10.847Z,1005.44
2023-04-25T05:16:11.075Z,1005.42
2023-04-25T05:17:11.174Z,1005.45
2023-04-25T05:18:11.302Z,1005.44
2023-04-25T05:19:11.474Z,1005.44
2023-04-25T05:20:11.558Z,1005.47
2023-04-25T05:21:11.660Z,1005.46
2023-04-25T05:22:11.770Z,1005.50
2023-04-25T05:23:11.923Z,1005.51
2023-04-25T05:24:12.050Z,1005.50
2023-04-25T05:25:12.208Z,1005.48
2023-04-25T05:26:12.301Z,1005.46
2023-04-25T05:27:13.384Z,1005.49
2023-04-25T05:28:12.556Z,1005.51
2023-04-25T05:29:12.686Z,1005.56
2023-04-25T05:30:12.842Z,1005.58
2023-04-25T05:31:12.948Z,1005.57
2023-04-25T05:32:13.138Z,1005.60
2023-04-25T05:33:13.320Z,1005.63
2023-04-25T05:34:13.351Z,1005.63
2023-04-25T05:36:29.058Z,1005.63
2023-04-25T05:37:29.135Z,1005.66
2023-04-25T05:38:29.373Z,1005.67
2023-04-25T05:39:29.520Z,1005.71
2023-04-25T05:40:29.556Z,1005.65
2023-04-25T05:41:29.705Z,1005.70
2023-04-25T05:42:29.787Z,1005.68
2023-04-25T05:43:30.643Z,1005.67
2023-04-25T05:44:30.136Z,1005.73
2023-04-25T05:45:30.415Z,1005.71
2023-04-25T05:46:31.308Z,1005.72
2023-04-25T05:47:31.564Z,1005.73
2023-04-25T05:48:30.774Z,1005.66
2023-04-25T05:49:30.943Z,1005.74
2023-04-25T05:50:31.019Z,1005.76
2023-04-25T05:51:31.340Z,1005.84
2023-04-25T05:52:31.360Z,1005.83
2023-04-25T05:53:31.549Z,1005.87
2023-04-25T05:54:31.595Z,1005.81
2023-04-25T05:55:31.615Z,1005.87
2023-04-25T05:56:31.818Z,1005.88
2023-04-25T05:57:31.824Z,1005.89
2023-04-25T05:58:34.806Z,1005.89
2023-04-25T05:59:32.110Z,1005.89
2023-04-25T06:00:32.313Z,1005.91
2023-04-25T06:01:32.341Z,1005.91
2023-04-25T06:02:32.762Z,1005.89
2023-04-25T06:03:33.912Z,1005.94
2023-04-25T06:04:32.968Z,1005.91
2023-04-25T06:05:33.109Z,1005.96
2023-04-25T06:06:33.050Z,1006.00
2023-04-25T06:07:33.289Z,1005.98
2023-04-25T06:08:33.329Z,1005.97
2023-04-25T06:09:33.311Z,1006.00
2023-04-25T06:10:33.501Z,1006.00
2023-04-25T06:11:34.316Z,1006.01
2023-04-25T06:12:33.819Z,1006.02
2023-04-25T06:13:33.997Z,1006.02
2023-04-25T06:14:34.111Z,1006.10
2023-04-25T06:15:35.124Z,1006.05
2023-04-25T06:16:34.401Z,1006.04
2023-04-25T06:17:34.692Z,1006.04
2023-04-25T06:18:34.700Z,1006.06
2023-04-25T06:19:34.900Z,1006.05
2023-04-25T06:20:34.973Z,1006.02
2023-04-25T06:21:35.095Z,1006.03
2023-04-25T06:22:35.166Z,1006.03
2023-04-25T06:23:35.307Z,1006.00
2023-04-25T06:24:35.464Z,1006.01
2023-04-25T06:25:35.642Z,1006.03
2023-04-25T06:26:35.818Z,1006.08
2023-04-25T06:27:36.114Z,1006.09
2023-04-25T06:28:36.086Z,1006.09
2023-04-25T06:29:36.150Z,1006.08
2023-04-25T06:30:36.341Z,1006.06
2023-04-25T06:31:36.658Z,1006.10
2023-04-25T06:32:36.757Z,1006.08
2023-04-25T06:33:36.772Z,1006.06
2023-04-25T06:34:36.952Z,1006.07
2023-04-25T06:35:36.947Z,1006.11
2023-04-25T06:36:37.099Z,1006.14
2023-04-25T06:37:37.275Z,1006.12
2023-04-25T06:38:37.416Z,1006.11
2023-04-25T06:39:39.307Z,1006.14
2023-04-25T06:40:38.632Z,1006.17
2023-04-25T06:41:37.778Z,1006.17
2023-04-25T06:42:38.045Z,1006.19
2023-04-25T06:43:37.987Z,1006.18
2023-04-25T06:44:38.267Z,1006.14
2023-04-25T06:45:38.349Z,1006.22
2023-04-25T06:46:38.501Z,1006.21
2023-04-25T06:47:39.438Z,1006.21
2023-04-25T06:48:38.600Z,1006.25
2023-04-25T06:49:38.816Z,1006.27
2023-04-25T06:50:39.647Z,1006.26
2023-04-25T06:51:40.964Z,1006.24
2023-04-25T06:52:39.191Z,1006.30
2023-04-25T06:53:39.343Z,1006.26
2023-04-25T06:54:39.430Z,1006.26
2023-04-25T06:55:39.630Z,1006.29
2023-04-25T06:56:39.892Z,1006.29
2023-04-25T06:57:39.967Z,1006.34
2023-04-25T06:58:40.112Z,1006.27
2023-04-25T06:59:40.333Z,1006.35
2023-04-25T07:00:40.404Z,1006.34
2023-04-25T07:01:40.480Z,1006.34
2023-04-25T07:02:40.925Z,1006.38
2023-04-25T07:03:40.823Z,1006.37
2023-04-25T07:04:41.252Z,1006.40
2023-04-25T07:05:40.937Z,1006.39
2023-04-25T07:06:42.012Z,1006.43
2023-04-25T07:07:41.250Z,1006.37
2023-04-25T07:08:41.498Z,1006.42
2023-04-25T07:09:41.490Z,1006.46
2023-04-25T07:10:41.623Z,1006.46
2023-04-25T07:11:42.813Z,1006.51
2023-04-25T07:13:58.895Z,1006.48
2023-04-25T07:14:57.558Z,1006.48
2023-04-25T07:15:57.676Z,1006.47
2023-04-25T07:16:57.993Z,1006.46
2023-04-25T07:17:58.029Z,1006.48
2023-04-25T07:18:58.136Z,1006.49
2023-04-25T07:19:58.228Z,1006.47
2023-04-25T07:20:58.455Z,1006.50
2023-04-25T07:21:58.527Z,1006.48
2023-04-25T07:22:58.623Z,1006.51
2023-04-25T07:23:58.711Z,1006.49
2023-04-25T07:24:58.852Z,1006.57
2023-04-25T07:25:59.027Z,1006.53
2023-04-25T07:26:59.178Z,1006.55
2023-04-25T07:27:59.308Z,1006.58
2023-04-25T07:28:59.611Z,1006.58
2023-04-25T07:29:59.620Z,1006.58
2023-04-25T07:30:59.870Z,1006.58
2023-04-25T07:31:59.984Z,1006.62
2023-04-25T07:33:00.052Z,1006.59
2023-04-25T07:34:02.063Z,1006.64
2023-04-25T07:35:00.399Z,1006.61
2023-04-25T07:36:00.397Z,1006.63
2023-04-25T07:37:00.612Z,1006.70
2023-04-25T07:38:00.748Z,1006.68
2023-04-25T07:39:00.980Z,1006.63
2023-04-25T07:40:01.038Z,1006.66
2023-04-25T07:41:01.297Z,1006.68
2023-04-25T07:42:01.285Z,1006.64
2023-04-25T07:43:01.499Z,1006.70
2023-04-25T07:44:01.595Z,1006.69
2023-04-25T07:45:01.816Z,1006.72
2023-04-25T07:46:01.841Z,1006.66
2023-04-25T07:47:04.486Z,1006.65
2023-04-25T07:48:02.216Z,1006.75
2023-04-25T07:49:02.351Z,1006.71
2023-04-25T07:50:02.348Z,1006.70
2023-04-25T07:51:02.571Z,1006.72
2023-04-25T07:52:02.565Z,1006.75
2023-04-25T07:53:02.789Z,1006.76
2023-04-25T07:54:02.999Z,1006.70
2023-04-25T07:55:03.211Z,1006.75
2023-04-25T07:56:03.267Z,1006.74
2023-04-25T07:57:03.551Z,1006.74
2023-04-25T07:58:03.463Z,1006.82
2023-04-25T07:59:03.540Z,1006.82
2023-04-25T08:00:03.766Z,1006.85
2023-04-25T08:01:04.820Z,1006.83
2023-04-25T08:02:03.977Z,1006.84
2023-04-25T08:03:04.334Z,1006.82
2023-04-25T08:04:04.425Z,1006.82
2023-04-25T08:05:05.349Z,1006.83
2023-04-25T08:06:07.643Z,1006.82
2023-04-25T08:07:04.684Z,1006.76
2023-04-25T08:08:04.938Z,1006.86
2023-04-25T08:09:04.931Z,1006.89
2023-04-25T08:10:05.092Z,1006.85
2023-04-25T08:11:05.247Z,1006.85
2023-04-25T08:12:05.326Z,1006.89
2023-04-25T08:13:05.535Z,1006.89
2023-04-25T08:14:05.616Z,1006.95
2023-04-25T08:15:05.757Z,1006.92
2023-04-25T08:16:06.052Z,1006.94
2023-04-25T08:17:06.933Z,1006.98
2023-04-25T08:18:07.170Z,1006.98
2023-04-25T08:19:06.313Z,1006.98
2023-04-25T08:20:06.416Z,1006.94
2023-04-25T08:21:06.533Z,1006.97
2023-04-25T08:22:06.631Z,1006.98
2023-04-25T08:23:06.814Z,1007.03
2023-04-25T08:24:06.955Z,1007.03
2023-04-25T08:25:08.152Z,1007.02
2023-04-25T08:26:08.186Z,1007.06
2023-04-25T08:27:07.349Z,1007.06
2023-04-25T08:28:08.452Z,1007.09
2023-04-25T08:29:07.715Z,1007.14
2023-04-25T08:30:07.726Z,1007.11
2023-04-25T08:31:08.616Z,1007.12
2023-04-25T08:32:08.045Z,1007.16
2023-04-25T08:33:08.508Z,1007.17
2023-04-25T08:34:08.365Z,1007.20
2023-04-25T08:35:08.440Z,1007.23
2023-04-25T08:36:08.824Z,1007.24
2023-04-25T08:37:09.377Z,1007.24
2023-04-25T08:38:09.529Z,1007.27
2023-04-25T08:39:09.114Z,1007.31
2023-04-25T08:40:09.136Z,1007.33
2023-04-25T08:41:09.344Z,1007.29
2023-04-25T08:42:09.566Z,1007.32
2023-04-25T08:43:09.564Z,1007.40
2023-04-25T08:44:10.166Z,1007.38
2023-04-25T08:45:10.593Z,1007.36
2023-04-25T08:46:11.107Z,1007.44
2023-04-25T08:47:11.298Z,1007.44
2023-04-25T08:48:10.327Z,1007.48
2023-04-25T08:49:11.398Z,1007.46
2023-04-25T08:50:10.771Z,1007.50
2023-04-25T08:53:26.421Z,1007.50
2023-04-25T08:54:34.457Z,1007.53
2023-04-25T08:55:28.711Z,1007.57
2023-04-25T08:56:28.448Z,1007.55
2023-04-25T08:57:27.052Z,1007.58
2023-04-25T08:58:27.163Z,1007.54
2023-04-25T08:59:27.245Z,1007.56
2023-04-25T09:00:27.450Z,1007.57
2023-04-25T09:01:28.098Z,1007.58
2023-04-25T09:02:27.736Z,1007.57
2023-04-25T09:03:28.101Z,1007.50
2023-04-25T09:04:27.886Z,1007.54
2023-04-25T09:05:28.905Z,1007.59
2023-04-25T09:06:28.269Z,1007.55
2023-04-25T09:07:28.435Z,1007.58
2023-04-25T09:08:29.014Z,1007.55
2023-04-25T09:09:29.133Z,1007.55
2023-04-25T09:10:28.866Z,1007.57
2023-04-25T09:11:28.950Z,1007.54
2023-04-25T09:12:29.176Z,1007.61
2023-04-25T09:13:29.185Z,1007.64
2023-04-25T09:14:29.359Z,1007.67
2023-04-25T09:15:30.992Z,1007.73
2023-04-25T09:16:31.705Z,1007.70
2023-04-25T09:17:29.828Z,1007.76
2023-04-25T09:18:30.563Z,1007.70
2023-04-25T09:19:39.497Z,1007.73
2023-04-25T09:20:35.214Z,1007.72
2023-04-25T09:21:30.388Z,1007.72
2023-04-25T09:22:30.897Z,1007.78
2023-04-25T09:23:30.511Z,1007.76
2023-04-25T09:24:30.594Z,1007.74
2023-04-25T09:25:31.543Z,1007.74
2023-04-25T09:26:30.916Z,1007.77
2023-04-25T09:27:31.056Z,1007.78
2023-04-25T09:28:31.233Z,1007.79
2023-04-25T09:29:32.064Z,1007.78
2023-04-25T09:30:31.317Z,1007.78
2023-04-25T09:31:33.215Z,1007.76
2023-04-25T09:32:32.074Z,1007.74
2023-04-25T09:33:32.444Z,1007.76
2023-04-25T09:34:32.093Z,1007.76
2023-04-25T09:35:32.074Z,1007.79
2023-04-25T09:36:32.285Z,1007.76
2023-04-25T09:37:32.753Z,1007.81
2023-04-25T09:38:32.418Z,1007.83
2023-04-25T09:39:33.510Z,1007.79
2023-04-25T09:40:32.493Z,1007.80
2023-04-25T09:41:33.747Z,1007.81
2023-04-25T09:42:33.123Z,1007.87
2023-04-25T09:43:32.959Z,1007.83
2023-04-25T09:44:33.808Z,1007.83
2023-04-25T09:45:33.286Z,1007.85
2023-04-25T09:46:34.596Z,1007.77
2023-04-25T09:47:34.438Z,1007.91
2023-04-25T09:48:33.650Z,1007.91
2023-04-25T09:49:33.784Z,1007.85
2023-04-25T09:50:34.036Z,1007.82
2023-04-25T09:51:34.784Z,1007.86
2023-04-25T09:52:34.690Z,1007.92
2023-04-25T09:53:34.353Z,1007.90
2023-04-25T09:54:34.567Z,1007.92
2023-04-25T09:55:35.740Z,1007.93
2023-04-25T09:56:34.903Z,1007.95
2023-04-25T09:57:35.002Z,1008.00
2023-04-25T09:58:35.787Z,1007.92
2023-04-25T09:59:35.325Z,1007.92
2023-04-25T10:00:36.437Z,1007.95
2023-04-25T10:01:35.656Z,1007.96
2023-04-25T10:12:25.197Z,1008.17
2023-04-25T10:13:25.360Z,1008.18
2023-04-25T10:14:25.623Z,1008.16
2023-04-25T10:15:26.615Z,1008.19
2023-04-25T10:16:25.792Z,1008.19
2023-04-25T10:17:25.948Z,1008.21
2023-04-25T10:18:26.106Z,1008.19
2023-04-25T10:19:27.149Z,1008.26
2023-04-25T10:20:27.282Z,1008.26
2023-04-25T10:21:26.357Z,1008.26
2023-04-25T10:22:26.498Z,1008.27
2023-04-25T10:23:27.550Z,1008.33
2023-04-25T10:24:27.732Z,1008.36
2023-04-25T10:25:26.796Z,1008.40
2023-04-25T10:26:29.540Z,1008.38
2023-04-25T10:27:28.692Z,1008.39
2023-04-25T10:28:27.244Z,1008.42
2023-04-25T10:29:28.230Z,1008.39
2023-04-25T10:30:28.469Z,1008.39
2023-04-25T10:31:28.598Z,1008.42
2023-04-25T10:32:30.070Z,1008.43
2023-04-25T10:33:27.864Z,1008.44
2023-04-25T10:34:28.337Z,1008.49
2023-04-25T10:35:28.120Z,1008.46
2023-04-25T10:36:28.262Z,1008.49
2023-04-25T10:37:28.470Z,1008.56
2023-04-25T10:38:28.942Z,1008.55
2023-04-25T10:39:28.759Z,1008.54
2023-04-25T10:40:29.049Z,1008.50
2023-04-25T10:41:29.112Z,1008.50
2023-04-25T10:42:29.073Z,1008.58
2023-04-25T10:43:30.065Z,1008.58
2023-04-25T10:44:30.393Z,1008.59
2023-04-25T10:45:29.416Z,1008.55
2023-04-25T10:46:29.516Z,1008.57
2023-04-25T10:47:30.440Z,1008.57
2023-04-25T10:48:29.865Z,1008.53
2023-04-25T10:49:29.888Z,1008.57
2023-04-25T10:50:30.043Z,1008.58
2023-04-25T10:51:37.166Z,1008.53
2023-04-25T10:52:31.367Z,1008.53
2023-04-25T10:53:30.403Z,1008.46
2023-04-25T10:54:30.548Z,1008.42
2023-04-25T10:55:33.451Z,1008.47
2023-04-25T10:56:31.796Z,1008.51
2023-04-25T10:57:31.877Z,1008.53
2023-04-25T10:58:31.942Z,1008.42
2023-04-25T10:59:32.324Z,1008.46
2023-04-25T11:00:42.865Z,1008.52
2023-04-25T11:01:32.716Z,1008.48
2023-04-25T11:02:32.030Z,1008.47
2023-04-25T11:03:32.065Z,1008.46
2023-04-25T11:04:32.788Z,1008.42
2023-04-25T11:05:34.576Z,1008.47
2023-04-25T11:06:32.268Z,1008.42
2023-04-25T11:07:33.406Z,1008.48
2023-04-25T11:08:33.482Z,1008.42
2023-04-25T11:09:32.791Z,1008.49
2023-04-25T11:10:32.858Z,1008.50
2023-04-25T11:11:33.086Z,1008.52
2023-04-25T11:12:34.210Z,1008.53
2023-04-25T11:13:34.391Z,1008.52
2023-04-25T11:14:33.627Z,1008.58
2023-04-25T11:15:33.716Z,1008.57
2023-04-25T11:16:33.868Z,1008.55
2023-04-25T11:17:34.205Z,1008.60
2023-04-25T11:18:33.882Z,1008.57
2023-04-25T11:19:34.103Z,1008.58
2023-04-25T11:20:34.944Z,1008.54
2023-04-25T11:21:34.765Z,1008.54
2023-04-25T11:22:34.368Z,1008.54
2023-04-25T11:23:34.501Z,1008.53
2023-04-25T11:24:34.721Z,1008.56
2023-04-25T11:25:35.550Z,1008.58
2023-04-25T11:26:34.928Z,1008.58
2023-04-25T11:27:35.145Z,1008.55
2023-04-25T11:28:35.389Z,1008.62
2023-04-25T11:29:35.492Z,1008.56
2023-04-25T11:30:35.674Z,1008.57
2023-04-25T11:31:35.798Z,1008.47
2023-04-25T11:32:36.044Z,1008.52
2023-04-25T11:33:36.064Z,1008.53
2023-04-25T11:34:36.748Z,1008.48
2023-04-25T11:35:37.220Z,1008.52
2023-04-25T11:36:36.446Z,1008.57
2023-04-25T11:37:36.517Z,1008.50
2023-04-25T11:38:36.581Z,1008.49
2023-04-25T11:39:37.824Z,1008.52
2023-04-25T11:40:36.829Z,1008.55
2023-04-25T11:41:37.072Z,1008.55
2023-04-25T11:42:37.235Z,1008.58
2023-04-25T11:43:38.285Z,1008.58
2023-04-25T11:44:37.550Z,1008.62
2023-04-25T11:45:38.614Z,1008.66
2023-04-25T11:46:39.123Z,1008.69
2023-04-25T11:47:38.961Z,1008.69
2023-04-25T11:48:38.116Z,1008.66
2023-04-25T11:49:38.257Z,1008.68
2023-04-25T11:50:39.475Z,1008.81
2023-04-25T11:51:38.505Z,1008.82
2023-04-25T11:52:39.514Z,1008.83
2023-04-25T11:53:39.663Z,1008.90
2023-04-25T11:54:40.702Z,1009.02
2023-04-25T11:55:39.172Z,1008.99
2023-04-25T11:56:40.101Z,1009.11
2023-04-25T11:57:39.303Z,1009.26
2023-04-25T11:58:40.349Z,1009.25
2023-04-25T11:59:39.658Z,1009.21
2023-04-25T12:00:40.749Z,1009.20
2023-04-25T12:01:40.789Z,1009.15
2023-04-25T12:03:55.844Z,1009.04
2023-04-25T12:04:56.549Z,1009.02
2023-04-25T12:05:56.034Z,1009.02
2023-04-25T12:06:56.806Z,1008.92
2023-04-25T12:07:56.035Z,1008.93
2023-04-25T12:08:56.238Z,1008.91
2023-04-25T12:09:56.338Z,1008.89
2023-04-25T12:10:56.465Z,1008.92
2023-04-25T12:11:57.517Z,1008.89
2023-04-25T12:12:56.708Z,1008.86
2023-04-25T12:13:57.500Z,1008.89
2023-04-25T12:14:57.934Z,1008.94
2023-04-25T12:15:57.699Z,1008.96
2023-04-25T12:16:58.221Z,1008.92
2023-04-25T12:17:59.333Z,1008.96
2023-04-25T12:18:58.281Z,1008.97
2023-04-25T12:19:57.700Z,1008.97
2023-04-25T12:20:58.135Z,1008.97
2023-04-25T12:21:59.389Z,1008.98
2023-04-25T12:22:57.971Z,1008.96
2023-04-25T12:24:01.261Z,1008.99
2023-04-25T12:24:58.226Z,1008.93
2023-04-25T12:25:58.367Z,1008.98
2023-04-25T12:26:58.541Z,1009.08
2023-04-25T12:27:58.693Z,1009.02
2023-04-25T12:28:59.660Z,1008.97
2023-04-25T12:29:59.043Z,1008.98
2023-04-25T12:30:59.188Z,1008.95
2023-04-25T12:32:00.430Z,1008.93
2023-04-25T12:32:59.400Z,1008.97
2023-04-25T12:34:00.529Z,1008.93
2023-04-25T12:34:59.753Z,1008.89
2023-04-25T12:35:59.794Z,1009.02
2023-04-25T12:36:59.970Z,1009.00
2023-04-25T12:38:00.135Z,1009.04
2023-04-25T12:39:00.107Z,1009.07
2023-04-25T12:40:01.510Z,1009.05
2023-04-25T12:41:00.536Z,1009.06
2023-04-25T12:42:00.534Z,1009.03
2023-04-25T12:43:02.175Z,1009.02
2023-04-25T12:44:01.796Z,1009.04
2023-04-25T12:45:01.090Z,1009.08
2023-04-25T12:46:01.078Z,1009.01
2023-04-25T12:47:02.369Z,1009.04
2023-04-25T12:48:04.041Z,1009.06
2023-04-25T12:49:11.629Z,1009.15
2023-04-25T12:50:03.535Z,1009.09
2023-04-25T12:51:01.796Z,1009.09
2023-04-25T12:52:02.008Z,1009.14
2023-04-25T12:53:03.020Z,1009.09
2023-04-25T12:54:02.277Z,1009.12
2023-04-25T12:55:02.307Z,1009.14
2023-04-25T12:56:02.577Z,1009.16
2023-04-25T12:57:04.570Z,1009.22
2023-04-25T12:58:03.729Z,1009.24
2023-04-25T12:59:03.769Z,1009.29
2023-04-25T13:00:04.166Z,1009.38
2023-04-25T13:01:03.192Z,1009.35
2023-04-25T13:02:04.907Z,1009.42
2023-04-25T13:03:03.836Z,1009.35
2023-04-25T13:04:03.910Z,1009.38
2023-04-25T13:05:03.744Z,1009.54
2023-04-25T13:06:03.955Z,1009.47
2023-04-25T13:07:06.726Z,1009.42
2023-04-25T13:08:05.660Z,1009.46
2023-04-25T13:09:04.287Z,1009.49
2023-04-25T13:10:04.580Z,1009.44
2023-04-25T13:11:04.734Z,1009.38
2023-04-25T13:12:04.768Z,1009.41
2023-04-25T13:13:09.303Z,1009.37
2023-04-25T13:14:08.163Z,1009.38
2023-04-25T13:15:06.081Z,1009.39
2023-04-25T13:16:05.590Z,1009.39
2023-04-25T13:17:06.719Z,1009.38
2023-04-25T13:18:06.892Z,1009.37
2023-04-25T13:19:07.074Z,1009.41
2023-04-25T13:20:06.782Z,1009.35
2023-04-25T13:21:08.387Z,1009.40
2023-04-25T13:22:07.162Z,1009.42
2023-04-25T13:23:07.163Z,1009.38
2023-04-25T13:24:07.210Z,1009.39
2023-04-25T13:25:06.415Z,1009.37
2023-04-25T13:26:06.707Z,1009.29
2023-04-25T13:27:07.729Z,1009.24
2023-04-25T13:28:06.752Z,1009.30
2023-04-25T13:29:07.131Z,1009.27
2023-04-25T13:30:07.119Z,1009.27
2023-04-25T13:31:08.280Z,1009.26
2023-04-25T13:32:08.898Z,1009.24
2023-04-25T13:33:10.258Z,1009.20
2023-04-25T13:34:07.642Z,1009.28
2023-04-25T13:35:10.872Z,1009.29
2023-04-25T13:36:08.826Z,1009.29
2023-04-25T13:37:08.998Z,1009.24
2023-04-25T13:38:08.195Z,1009.21
2023-04-25T13:39:09.360Z,1009.26
2023-04-25T13:40:09.558Z,1009.19
2023-04-25T13:42:49.489Z,0.00
2023-04-25T13:43:24.856Z,0.00
2023-04-25T13:44:24.870Z,0.00
2023-04-25T13:45:25.431Z,0.00
2023-04-25T13:46:44.796Z,0.00
2023-04-25T13:47:26.011Z,0.00
2023-04-25T13:48:24.923Z,0.00
2023-04-25T13:49:25.027Z,0.00
2023-04-25T13:50:24.980Z,0.00
2023-04-25T13:51:25.593Z,0.00
2023-04-25T13:52:25.828Z,0.00
2023-04-25T13:53:25.001Z,0.00
2023-04-25T13:54:24.917Z,0.00
2023-04-25T13:55:25.015Z,0.00
2023-04-25T13:56:24.882Z,0.00
2023-04-25T13:57:25.842Z,0.00
2023-04-25T13:58:24.936Z,0.00
2023-04-25T13:59:24.940Z,0.00
2023-04-25T14:00:25.757Z,0.00
2023-04-25T14:01:24.978Z,0.00
2023-04-25T14:02:24.952Z,0.00
2023-04-25T14:03:25.048Z,0.00
2023-04-25T14:04:25.046Z,0.00
2023-04-25T14:05:24.942Z,0.00
2023-04-25T14:06:25.052Z,0.00
2023-04-25T14:07:24.961Z,0.00
2023-04-25T14:08:25.010Z,0.00
2023-04-25T14:09:24.977Z,0.00
2023-04-25T14:10:24.999Z,0.00
2023-04-25T14:11:25.018Z,0.00
2023-04-25T14:12:25.032Z,0.00
2023-04-25T14:13:25.004Z,0.00
2023-04-25T14:14:25.029Z,0.00
2023-04-25T14:15:24.978Z,0.00
2023-04-25T14:16:25.070Z,0.00
2023-04-25T14:17:25.036Z,0.00
2023-04-25T14:18:25.040Z,0.00
2023-04-25T14:19:25.050Z,0.00
2023-04-25T14:20:25.040Z,0.00
2023-04-25T14:21:25.052Z,0.00
2023-04-25T14:22:25.064Z,0.00
2023-04-25T14:23:25.081Z,0.00
2023-04-25T14:24:25.069Z,0.00
2023-04-25T14:25:25.082Z,0.00
2023-04-25T14:26:25.117Z,0.00
2023-04-25T14:27:26.721Z,0.00
2023-04-25T14:28:25.038Z,0.00
2023-04-25T14:29:25.122Z,0.00
2023-04-25T14:30:25.071Z,0.00
2023-04-25T14:31:25.182Z,0.00
2023-04-25T14:32:25.083Z,0.00
2023-04-25T14:33:25.354Z,0.00
2023-04-25T14:34:25.099Z,0.00
2023-04-25T14:35:25.106Z,0.00
2023-04-25T14:36:25.109Z,0.00
2023-04-25T14:37:25.148Z,0.00
2023-04-25T14:38:25.102Z,0.00
2023-04-25T14:39:25.161Z,0.00
2023-04-25T14:40:25.138Z,0.00
2023-04-25T14:41:25.166Z,0.00
2023-04-25T14:42:25.176Z,0.00
2023-04-25T14:43:25.174Z,0.00
2023-04-25T14:44:25.145Z,0.00
2023-04-25T14:45:25.179Z,0.00
2023-04-25T14:46:25.210Z,0.00
2023-04-25T14:47:25.195Z,0.00
2023-04-25T14:48:25.369Z,0.00
2023-04-25T14:49:25.196Z,0.00
2023-04-25T14:50:25.217Z,0.00
2023-04-25T14:51:25.225Z,0.00
2023-04-25T14:52:25.193Z,0.00
2023-04-25T14:53:25.260Z,0.00
2023-04-25T14:54:25.201Z,0.00
2023-04-25T14:55:25.215Z,0.00
2023-04-25T14:56:25.308Z,0.00
2023-04-25T14:57:25.229Z,0.00
2023-04-25T14:58:25.270Z,0.00
2023-04-25T14:59:25.415Z,0.00
2023-04-25T15:00:25.232Z,0.00
2023-04-25T15:01:25.285Z,0.00
2023-04-25T15:02:25.243Z,0.00
2023-04-25T15:03:25.492Z,0.00
2023-04-25T15:04:25.388Z,0.00
2023-04-25T15:05:25.255Z,0.00
2023-04-25T15:06:25.333Z,0.00
2023-04-25T15:07:25.317Z,0.00
2023-04-25T15:08:25.296Z,0.00
2023-04-25T15:09:25.307Z,0.00
2023-04-25T15:10:25.350Z,0.00
2023-04-25T15:11:25.509Z,0.00
2023-04-25T15:13:41.535Z,0.00
2023-04-25T15:14:41.511Z,0.00
2023-04-25T15:15:41.564Z,0.00
2023-04-25T15:16:41.594Z,0.00
2023-04-25T15:17:41.505Z,0.00
2023-04-25T15:18:42.463Z,0.00
2023-04-25T15:19:41.870Z,0.00
2023-04-25T15:20:41.629Z,0.00
2023-04-25T15:21:41.573Z,0.00
2023-04-25T15:22:41.540Z,0.00
2023-04-25T15:23:41.542Z,0.00
2023-04-25T15:24:41.566Z,0.00
2023-04-25T15:25:41.577Z,0.00
2023-04-25T15:26:41.577Z,0.00
2023-04-25T15:27:41.684Z,0.00
2023-04-25T15:28:41.580Z,0.00
2023-04-25T15:29:41.618Z,0.00
2023-04-25T15:30:42.541Z,0.00
2023-04-25T15:31:41.647Z,0.00
2023-04-25T15:32:41.649Z,0.00
2023-04-25T15:33:41.606Z,0.00
2023-04-25T15:34:41.678Z,0.00
2023-04-25T15:35:41.622Z,0.00
2023-04-25T15:36:41.640Z,0.00
2023-04-25T15:37:41.634Z,0.00
2023-04-25T15:38:41.695Z,0.00
2023-04-25T15:39:41.702Z,0.00
2023-04-25T15:40:41.645Z,0.00
2023-04-25T15:41:41.673Z,0.00
2023-04-25T15:42:41.761Z,0.00
2023-04-25T15:43:42.619Z,0.00
2023-04-25T15:44:41.714Z,0.00
2023-04-25T15:45:41.744Z,0.00
2023-04-25T15:46:41.724Z,0.00
2023-04-25T15:47:41.701Z,0.00
2023-04-25T15:48:41.768Z,0.00
2023-04-25T15:49:42.009Z,0.00
2023-04-25T15:50:41.712Z,0.00
2023-04-25T15:51:41.718Z,0.00
2023-04-25T15:52:41.726Z,0.00
2023-04-25T15:53:41.760Z,0.00
2023-04-25T15:54:41.754Z,0.00
2023-04-25T15:55:41.751Z,0.00
2023-04-25T15:56:41.748Z,0.00
2023-04-25T15:57:41.767Z,0.00
2023-04-25T15:58:41.766Z,0.00
2023-04-25T15:59:41.775Z,0.00
2023-04-25T16:12:49.565Z,1010.19
2023-04-25T16:13:48.827Z,1010.19
2023-04-25T16:14:48.795Z,1010.20
2023-04-25T16:15:48.915Z,1010.18
2023-04-25T16:16:49.974Z,1010.18
2023-04-25T16:17:49.162Z,1010.24
2023-04-25T16:18:49.300Z,1010.21
2023-04-25T16:19:49.449Z,1010.22
2023-04-25T16:20:49.578Z,1010.20
2023-04-25T16:21:49.697Z,1010.16
2023-04-25T16:22:49.928Z,1010.19
2023-04-25T16:23:50.265Z,1010.16
2023-04-25T16:24:50.160Z,1010.13
2023-04-25T16:25:50.207Z,1010.11
2023-04-25T16:26:50.361Z,1010.12
2023-04-25T16:27:50.449Z,1010.06
2023-04-25T16:28:50.682Z,1010.13
2023-04-25T16:29:50.756Z,1010.16
2023-04-25T16:30:50.988Z,1010.13
2023-04-25T16:31:51.090Z,1010.15
2023-04-25T16:32:51.197Z,1010.16
2023-04-25T16:33:51.452Z,1010.15
2023-04-25T16:34:51.372Z,1010.14
2023-04-25T16:35:51.554Z,1010.18
2023-04-25T16:36:54.474Z,1010.20
2023-04-25T16:37:51.860Z,1010.19
2023-04-25T16:38:52.162Z,1010.18
2023-04-25T16:39:52.084Z,1010.20
2023-04-25T16:40:52.219Z,1010.25
2023-04-25T16:41:52.313Z,1010.25
2023-04-25T16:42:52.438Z,1010.24
2023-04-25T16:43:52.594Z,1010.24
2023-04-25T16:44:52.735Z,1010.41
2023-04-25T16:45:52.928Z,1010.36
2023-04-25T16:46:53.042Z,1010.41
2023-04-25T16:47:53.410Z,1010.48